Time;durP1;ratioP1;P1;durP2;ratioP2;P2;SDS_P1;SDS_P2;PMS_P1;PMS_P2;Temp;Humidity;BMP_temperature;BMP_pressure;BME280_temperature;BME280_humidity;BME280_pressure;Samples;Min_cycle;Max_cycle;Signal;HPM_P1;HPM_P2
2022/05/02 00:04:48;;;;;;;16.75;11.02;;;;;;;3.96;100.00;102210.81;10312578;28;20030;-77
2022/05/02 00:09:48;;;;;;;16.90;11.60;;;;;;;3.96;100.00;102221.72;10326298;28;20027;-77
2022/05/02 00:14:48;;;;;;;14.45;10.85;;;;;;;3.97;100.00;102223.41;10343590;28;20030;-78
2022/05/02 00:19:49;;;;;;;16.40;10.18;;;;;;;3.94;100.00;102218.31;10320327;28;20030;-78
2022/05/02 00:24:49;;;;;;;17.63;10.68;;;;;;;3.89;100.00;102201.69;10312220;28;20066;-77
2022/05/02 00:29:50;;;;;;;17.08;9.90;;;;;;;3.48;100.00;102145.50;10312618;28;20066;-79
2022/05/02 00:34:50;;;;;;;18.30;11.68;;;;;;;3.84;100.00;102208.50;10311310;28;20383;-77
2022/05/02 00:39:52;;;;;;;22.23;11.90;;;;;;;3.79;100.00;102194.56;10330234;28;20118;-77
2022/05/02 00:44:52;;;;;;;16.25;10.88;;;;;;;3.84;100.00;102197.63;10350348;28;20133;-77
2022/05/02 00:49:53;;;;;;;22.52;12.63;;;;;;;3.36;100.00;102128.69;10349878;28;20022;-77
2022/05/02 00:54:53;;;;;;;18.05;13.02;;;;;;;3.68;100.00;102185.91;10351690;28;20031;-77
2022/05/02 00:59:54;;;;;;;19.17;12.00;;;;;;;3.69;100.00;102198.53;10350764;28;20047;-77
2022/05/02 01:04:54;;;;;;;19.10;12.13;;;;;;;3.29;100.00;102122.25;10333114;28;20089;-77
2022/05/02 01:09:55;;;;;;;22.83;12.95;;;;;;;3.67;100.00;102189.69;10349942;28;20038;-78
2022/05/02 01:14:56;;;;;;;21.10;13.73;;;;;;;3.32;100.00;102142.81;10349223;28;20034;-77
2022/05/02 01:19:56;;;;;;;23.40;14.38;;;;;;;3.25;100.00;102125.50;10349268;28;20034;-77
2022/05/02 01:24:57;;;;;;;18.73;12.85;;;;;;;3.50;100.00;102181.56;10350968;28;20058;-77
2022/05/02 01:29:57;;;;;;;24.45;12.18;;;;;;;3.52;100.00;102187.69;10350004;28;20038;-78
2022/05/02 01:34:58;;;;;;;22.92;13.40;;;;;;;3.44;100.00;102183.09;10348585;28;20042;-77
2022/05/02 01:39:58;;;;;;;23.77;14.00;;;;;;;3.36;100.00;102172.25;10347180;28;20022;-77
2022/05/02 01:44:59;;;;;;;20.40;13.48;;;;;;;3.38;100.00;102188.41;10349397;28;20030;-77
2022/05/02 01:50:00;;;;;;;22.30;14.40;;;;;;;3.23;100.00;102171.94;10349515;28;20062;-77
2022/05/02 01:55:00;;;;;;;23.60;14.15;;;;;;;3.23;100.00;102178.25;10348339;28;20030;-77
2022/05/02 02:00:01;;;;;;;21.42;14.23;;;;;;;3.20;100.00;102175.00;10349029;28;20031;-77
2022/05/02 02:10:20;;;;;;;22.27;14.43;;;;;;;3.10;100.00;102167.06;10346246;28;20027;-77
2022/05/02 02:15:21;;;;;;;22.77;14.40;;;;;;;3.03;100.00;102166.88;10348005;28;20041;-77
2022/05/02 02:20:21;;;;;;;25.55;15.98;;;;;;;3.00;100.00;102175.41;10331338;28;20038;-77
2022/05/02 02:25:22;;;;;;;25.90;15.10;;;;;;;3.00;100.00;102172.66;10347213;28;20058;-77
2022/05/02 02:30:22;;;;;;;24.13;15.32;;;;;;;3.03;100.00;102166.03;10329093;28;20062;-77
2022/05/02 02:35:23;;;;;;;26.80;15.80;;;;;;;2.89;100.00;102153.97;10305788;28;20042;-77
2022/05/02 02:40:23;;;;;;;26.38;15.90;;;;;;;2.84;100.00;102156.38;10322150;28;20030;-77
2022/05/02 02:45:24;;;;;;;24.90;14.93;;;;;;;2.82;100.00;102158.41;10321649;28;20035;-77
2022/05/02 02:50:24;;;;;;;25.52;16.60;;;;;;;2.78;100.00;102155.19;10305875;28;20038;-77
2022/05/02 02:55:25;;;;;;;26.20;15.20;;;;;;;2.67;100.00;102141.94;10307299;28;20058;-77
2022/05/02 03:00:25;;;;;;;27.17;16.00;;;;;;;2.80;100.00;102157.72;10306873;28;20102;-77
2022/05/02 03:10:45;;;;;;;27.20;16.38;;;;;;;2.63;100.00;102144.16;10305961;28;20062;-77
2022/05/02 03:15:45;;;;;;;24.20;14.88;;;;;;;2.68;100.00;102153.66;10305083;28;20027;-77
2022/05/02 03:20:45;;;;;;;26.90;14.77;;;;;;;2.48;100.00;102129.56;10306926;28;20034;-77
2022/05/02 03:25:46;;;;;;;21.40;13.57;;;;;;;2.57;100.00;102147.53;10321860;28;20051;-76
2022/05/02 03:30:46;;;;;;;25.40;15.98;;;;;;;2.50;100.00;102138.38;10310953;28;20070;-77
2022/05/02 03:35:47;;;;;;;27.23;16.05;;;;;;;2.19;100.00;102090.13;10340691;28;20042;-77
2022/05/02 03:40:47;;;;;;;28.05;16.60;;;;;;;2.53;100.00;102148.91;10303396;28;20038;-77
2022/05/02 03:45:48;;;;;;;26.45;16.55;;;;;;;2.50;100.00;102148.38;10305697;28;20027;-77
2022/05/02 03:50:48;;;;;;;28.98;15.75;;;;;;;2.43;100.00;102132.75;10304660;28;20038;-76
2022/05/02 03:55:49;;;;;;;25.60;17.33;;;;;;;2.35;100.00;102119.16;10306395;28;20520;-77
2022/05/02 04:00:49;;;;;;;27.52;16.13;;;;;;;2.44;100.00;102133.63;10305730;28;20030;-77
2022/05/02 04:05:50;;;;;;;29.63;18.65;;;;;;;2.37;100.00;102132.59;10308715;28;20041;-77
2022/05/02 04:10:50;;;;;;;26.55;17.02;;;;;;;2.49;100.00;102146.69;10345045;28;20034;-77
2022/05/02 04:15:51;;;;;;;25.77;16.70;;;;;;;2.53;100.00;102154.34;10345303;28;20030;-77
2022/05/02 04:20:51;;;;;;;28.63;17.27;;;;;;;2.52;100.00;102146.34;10345966;28;20035;-77
2022/05/02 04:25:51;;;;;;;27.60;18.40;;;;;;;2.55;100.00;102141.44;10351089;28;20042;-77
2022/05/02 04:30:52;;;;;;;27.38;17.42;;;;;;;2.59;100.00;102141.94;10352977;28;20349;-77
2022/05/02 04:35:53;;;;;;;34.28;19.88;;;;;;;2.69;100.00;102155.34;10328473;28;20041;-77
2022/05/02 04:40:53;;;;;;;35.55;20.70;;;;;;;2.78;100.00;102163.34;10329251;28;20038;-75
2022/05/02 04:45:54;;;;;;;35.47;19.92;;;;;;;2.81;100.00;102145.81;10352328;28;20026;-77
2022/05/02 04:50:54;;;;;;;37.45;21.08;;;;;;;2.92;100.00;102145.47;10352228;28;20042;-77
2022/05/02 04:55:55;;;;;;;39.10;21.52;;;;;;;2.99;100.00;102154.63;10352904;28;20026;-77
2022/05/02 05:00:55;;;;;;;35.20;20.98;;;;;;;3.13;100.00;102149.53;10343120;28;20031;-77
2022/05/02 05:05:56;;;;;;;39.03;21.73;;;;;;;3.27;100.00;102159.69;10292892;28;20045;-78
2022/05/02 05:11:08;;;;;;;33.63;21.05;;;;;;;3.41;100.00;102164.41;10309228;28;20035;-77
2022/05/02 05:16:21;;;;;;;40.35;23.50;;;;;;;3.42;100.00;102152.47;10325335;28;20039;-77
2022/05/02 05:21:45;;;;;;;42.40;24.33;;;;;;;3.70;100.00;102160.22;10325177;28;20034;-77
2022/05/02 05:26:54;;;;;;;42.65;25.00;;;;;;;3.94;100.00;102161.09;10324941;28;20074;-77
2022/05/02 05:32:10;;;;;;;51.22;29.15;;;;;;;4.07;100.00;102146.88;10307243;28;20046;-77
2022/05/02 05:37:35;;;;;;;47.15;27.50;;;;;;;4.41;100.00;102155.50;10320978;28;20530;-76
2022/05/02 05:43:13;;;;;;;44.05;26.38;;;;;;;4.76;100.00;102155.06;10309912;28;20498;-76
2022/05/02 05:48:38;;;;;;;40.35;24.05;;;;;;;5.20;100.00;102163.31;10309568;28;20098;-76
2022/05/02 05:53:52;;;;;;;40.03;25.90;;;;;;;5.59;100.00;102144.97;10309065;28;20039;-77
2022/05/02 05:58:56;;;;;;;35.20;22.13;;;;;;;6.05;100.00;102158.38;10308149;28;20031;-76
2022/05/02 06:04:03;;;;;;;34.20;19.85;;;;;;;6.35;100.00;102141.88;10309331;28;20031;-77
2022/05/02 06:09:05;;;;;;;27.65;18.90;;;;;;;6.81;100.00;102149.66;10308762;28;20467;-78
2022/05/02 06:14:05;;;;;;;19.33;14.77;;;;;;;7.07;100.00;102141.63;10322743;28;20071;-78
2022/05/02 06:19:08;;;;;;;18.85;13.65;;;;;;;7.51;100.00;102153.28;10306809;28;20031;-78
2022/05/02 06:24:11;;;;;;;16.45;12.15;;;;;;;7.81;100.00;102126.44;10322748;28;20046;-78
2022/05/02 06:29:12;;;;;;;14.05;10.82;;;;;;;8.17;100.00;102130.75;10323013;28;20035;-77
2022/05/02 06:34:13;;;;;;;15.68;10.02;;;;;;;8.40;100.00;102146.84;10308250;28;20035;-77
2022/05/02 06:39:25;;;;;;;10.85;8.88;;;;;;;8.63;100.00;102149.22;10327086;28;20038;-77
2022/05/02 06:45:03;;;;;;;9.75;7.88;;;;;;;8.94;100.00;102153.22;10346255;28;20034;-78
2022/05/02 06:50:05;;;;;;;9.80;8.15;;;;;;;9.23;100.00;102145.59;10346726;28;20064;-77
2022/05/02 06:55:31;;;;;;;12.38;7.80;;;;;;;9.56;100.00;102152.91;10347800;28;20038;-77
2022/05/02 07:00:37;;;;;;;10.43;7.80;;;;;;;9.90;100.00;102147.06;10347286;28;20038;-77
2022/05/02 07:05:54;;;;;;;10.03;6.90;;;;;;;10.18;100.00;102148.59;10372556;28;20530;-78
2022/05/02 07:11:01;;;;;;;8.60;7.13;;;;;;;10.36;100.00;102133.31;10380845;28;20098;-79
2022/05/02 07:16:24;;;;;;;14.40;9.02;;;;;;;10.55;100.00;102132.31;10368052;28;20034;-77
2022/05/02 07:21:40;;;;;;;8.60;5.65;;;;;;;10.74;100.00;102138.72;10386604;28;20347;-77
2022/05/02 07:26:40;;;;;;;7.40;3.80;;;;;;;10.77;100.00;102107.13;10366675;28;20041;-77
2022/05/02 07:31:41;;;;;;;7.05;4.25;;;;;;;10.88;100.00;102114.66;10365465;28;20108;-77
2022/05/02 07:36:43;;;;;;;6.90;4.53;;;;;;;11.19;100.00;102133.00;10365445;28;20438;-77
2022/05/02 07:41:44;;;;;;;6.43;4.47;;;;;;;11.29;100.00;102127.81;10384473;28;20037;-75
2022/05/02 07:46:49;;;;;;;7.45;4.45;;;;;;;11.37;100.00;102115.66;10368445;28;20026;-73
2022/05/02 07:51:51;;;;;;;6.53;4.20;;;;;;;11.63;100.00;102113.66;10380355;28;20026;-74
2022/05/02 07:56:54;;;;;;;6.53;4.90;;;;;;;11.87;100.00;102098.91;10384702;28;20053;-73
2022/05/02 08:01:56;;;;;;;8.75;4.75;;;;;;;12.18;100.00;102124.63;10386965;28;20034;-74
2022/05/02 08:07:24;;;;;;;9.25;5.03;;;;;;;12.55;100.00;102124.50;10358887;28;20033;-74
2022/05/02 08:12:37;;;;;;;8.90;4.30;;;;;;;12.82;100.00;102118.53;10392912;28;20483;-74
2022/05/02 08:18:01;;;;;;;7.97;4.70;;;;;;;13.03;99.27;102120.69;10390840;28;20469;-74
2022/05/02 08:28:36;;;;;;;12.52;5.05;;;;;;;12.94;96.65;102111.09;10386008;28;20056;-74
2022/05/02 08:33:36;;;;;;;7.50;4.55;;;;;;;13.09;92.56;102094.00;10313281;28;20135;-73
2022/05/02 08:38:55;;;;;;;9.60;5.20;;;;;;;13.42;97.98;102126.59;10380126;28;20140;-74
2022/05/02 08:44:17;;;;;;;10.88;5.18;;;;;;;13.70;90.42;102102.81;10386081;28;20034;-74
2022/05/02 08:49:45;;;;;;;7.90;5.35;;;;;;;13.98;90.16;102109.47;10387013;28;20100;-74
2022/05/02 08:55:16;;;;;;;9.27;4.60;;;;;;;14.00;88.03;102096.22;10391793;28;20041;-73
2022/05/02 09:00:16;;;;;;;7.30;4.72;;;;;;;14.24;89.56;102103.31;10390681;28;20347;-73
2022/05/02 09:05:39;;;;;;;7.53;4.90;;;;;;;14.43;86.17;102094.78;10348117;28;20098;-73
2022/05/02 09:11:00;;;;;;;10.23;4.43;;;;;;;14.41;85.97;102097.81;10350126;28;20045;-74
2022/05/02 09:16:16;;;;;;;7.20;5.50;;;;;;;14.52;81.20;102073.88;10349678;28;20062;-74
2022/05/02 09:21:26;;;;;;;8.65;5.18;;;;;;;14.86;81.94;102073.88;10351466;28;20034;-73
2022/05/02 09:26:36;;;;;;;10.68;5.75;;;;;;;15.01;78.04;102062.19;10350804;28;20051;-76
2022/05/02 09:31:51;;;;;;;8.80;5.40;;;;;;;15.52;77.39;102062.84;10349024;28;20119;-74
2022/05/02 09:37:01;;;;;;;7.65;4.93;;;;;;;15.87;74.84;102047.75;10332180;28;20089;-74
2022/05/02 09:42:32;;;;;;;7.20;4.97;;;;;;;16.23;71.89;102035.06;10349881;28;20034;-75
2022/05/02 09:53:41;;;;;;;6.65;4.57;;;;;;;16.97;70.73;102027.84;10348109;28;20026;-75
2022/05/02 09:59:01;;;;;;;5.32;4.28;;;;;;;16.94;69.68;101995.00;10335207;28;20039;-74
2022/05/02 10:04:14;;;;;;;7.32;5.25;;;;;;;17.20;67.80;102014.59;10334759;28;20030;-74
2022/05/02 10:09:33;;;;;;;7.97;4.88;;;;;;;16.56;67.06;101996.97;10349103;28;20431;-74
2022/05/02 10:15:11;;;;;;;9.73;4.63;;;;;;;16.33;66.86;102007.34;10347316;28;20029;-74
2022/05/02 10:20:15;;;;;;;7.60;5.25;;;;;;;15.53;71.75;102032.06;10348299;28;20434;-74
2022/05/02 10:25:38;;;;;;;7.57;5.10;;;;;;;14.92;73.20;102020.19;10348063;28;20056;-73
2022/05/02 10:30:49;;;;;;;7.43;4.57;;;;;;;15.21;71.84;102023.63;10326333;28;20114;-72
2022/05/02 10:35:51;;;;;;;7.38;4.50;;;;;;;14.94;72.13;101973.63;10306939;28;20039;-74
2022/05/02 10:40:51;;;;;;;10.02;5.30;;;;;;;15.25;69.69;102008.13;10322230;28;20038;-74
2022/05/02 10:45:52;;;;;;;8.70;4.88;;;;;;;15.80;68.14;101997.16;10322103;28;20050;-73
2022/05/02 10:51:09;;;;;;;8.32;4.82;;;;;;;16.57;66.97;101993.06;10306283;28;20106;-73
2022/05/02 10:56:17;;;;;;;13.23;4.70;;;;;;;16.43;67.44;101981.56;10322151;28;20035;-74
2022/05/02 11:01:39;;;;;;;6.22;4.40;;;;;;;15.63;66.90;102005.56;10321093;28;20041;-74
2022/05/02 11:07:01;;;;;;;6.22;3.90;;;;;;;15.59;68.87;101999.69;10305642;28;20078;-73
2022/05/02 11:12:03;;;;;;;8.32;4.68;;;;;;;16.30;65.78;101963.41;10306567;28;20039;-74
2022/05/02 11:17:19;;;;;;;5.53;4.10;;;;;;;16.40;64.21;101967.38;10306023;28;20035;-73
2022/05/02 11:22:30;;;;;;;5.95;4.20;;;;;;;16.61;65.24;101977.53;10289335;28;20031;-73
2022/05/02 11:27:54;;;;;;;8.88;4.30;;;;;;;17.64;61.13;101955.72;10306209;28;20050;-75
2022/05/02 11:33:02;;;;;;;5.75;4.05;;;;;;;18.14;58.67;101954.13;10335922;28;20050;-75
2022/05/02 11:38:25;;;;;;;7.32;4.25;;;;;;;18.80;58.63;101944.00;10346597;28;20042;-74
2022/05/02 11:43:29;;;;;;;6.40;4.30;;;;;;;19.64;56.96;101941.38;10393424;28;20029;-72
2022/05/02 11:48:39;;;;;;;6.53;3.72;;;;;;;19.80;52.88;101920.56;10387028;28;20030;-72
2022/05/02 11:53:39;;;;;;;6.32;3.63;;;;;;;19.61;53.31;101927.97;10393433;28;20058;-72
2022/05/02 11:58:45;;;;;;;7.18;4.28;;;;;;;20.32;52.26;101907.81;10359656;28;20022;-74
2022/05/02 12:04:00;;;;;;;8.45;4.70;;;;;;;20.66;49.93;101909.72;10392506;28;20076;-73
2022/05/02 12:09:03;;;;;;;8.38;4.03;;;;;;;21.19;48.36;101891.97;10354039;28;20045;-70
2022/05/02 12:14:04;;;;;;;6.85;4.13;;;;;;;21.25;46.50;101896.38;10349442;28;20047;-70
2022/05/02 12:19:08;;;;;;;6.40;4.70;;;;;;;21.71;46.88;101895.69;10351143;28;20507;-71
2022/05/02 12:24:09;;;;;;;9.05;4.63;;;;;;;22.50;47.29;101889.25;10351406;28;20034;-71
2022/05/02 12:29:14;;;;;;;11.25;6.53;;;;;;;22.66;44.71;101892.59;10351206;28;20051;-70
2022/05/02 12:34:15;;;;;;;7.30;4.47;;;;;;;22.43;45.08;101882.38;10353268;28;20048;-72
2022/05/02 12:39:26;;;;;;;4.45;3.88;;;;;;;22.93;43.52;101869.28;10312826;28;20038;-71
2022/05/02 12:44:36;;;;;;;9.43;5.57;;;;;;;22.88;44.35;101876.97;10323684;28;20039;-71
2022/05/02 12:50:02;;;;;;;7.78;5.43;;;;;;;22.41;43.69;101879.03;10335872;28;20030;-71
2022/05/02 12:55:03;;;;;;;7.68;5.28;;;;;;;22.34;44.59;101880.28;10392527;28;20038;-71
2022/05/02 13:05:23;;;;;;;6.45;5.05;;;;;;;22.66;43.61;101872.13;10364242;28;20042;-71
2022/05/02 13:10:28;;;;;;;6.78;4.68;;;;;;;22.56;43.48;101853.50;10349442;28;20113;-71
2022/05/02 13:15:40;;;;;;;4.93;4.00;;;;;;;22.79;42.76;101828.31;10350849;28;20085;-73
2022/05/02 13:20:44;;;;;;;5.40;4.13;;;;;;;23.61;41.77;101848.94;10351275;28;20282;-71
2022/05/02 13:26:23;;;;;;;7.75;4.30;;;;;;;23.90;42.43;101856.91;10370134;28;20053;-71
2022/05/02 13:31:30;;;;;;;6.68;3.75;;;;;;;23.89;40.22;101839.19;10374714;28;20415;-72
2022/05/02 13:36:41;;;;;;;4.63;3.83;;;;;;;24.04;40.47;101832.34;10329156;28;20034;-71
2022/05/02 13:41:48;;;;;;;6.13;4.45;;;;;;;23.56;40.84;101825.41;10346478;28;20025;-71
2022/05/02 13:47:01;;;;;;;4.78;4.05;;;;;;;23.76;41.94;101837.28;10347382;28;20026;-72
2022/05/02 13:52:10;;;;;;;8.90;3.58;;;;;;;23.33;40.76;101830.16;10347758;28;20118;-72
2022/05/02 13:57:31;;;;;;;5.35;4.07;;;;;;;22.88;40.51;101803.97;10347909;28;20060;-71
2022/05/02 14:02:58;;;;;;;19.83;5.03;;;;;;;23.63;43.25;101843.81;10346271;28;20039;-70
2022/05/02 14:08:00;;;;;;;;;;;;;;;22.90;41.13;101816.56;10348566;28;20035;-71
2022/05/02 14:13:00;;;;;;;5.22;3.47;;;;;;;22.93;42.39;101818.72;10348166;28;19945;-75
2022/05/02 14:18:05;;;;;;;5.60;4.65;;;;;;;22.85;41.01;101756.88;10329628;28;20484;-71
2022/05/02 14:23:07;;;;;;;5.50;4.60;;;;;;;22.68;41.66;101820.13;10342423;28;20041;-72
2022/05/02 14:28:12;;;;;;;6.10;4.22;;;;;;;22.63;41.58;101819.41;10345079;28;20041;-77
2022/05/02 14:33:17;;;;;;;6.75;3.90;;;;;;;22.45;41.23;101819.22;10343353;28;20070;-74
2022/05/02 14:38:18;;;;;;;9.00;5.30;;;;;;;22.70;42.40;101820.66;10345260;28;20041;-71
2022/05/02 14:43:19;;;;;;;7.97;6.28;;;;;;;22.51;45.04;101846.03;10348582;28;20077;-71
2022/05/02 14:48:20;;;;;;;12.43;6.18;;;;;;;22.31;45.87;101847.25;10347965;28;20034;-70
2022/05/02 14:53:21;;;;;;;12.57;6.68;;;;;;;22.12;44.95;101827.69;10322597;28;20042;-70
2022/05/02 14:58:23;;;;;;;8.70;5.13;;;;;;;22.03;44.33;101823.09;10345842;28;20046;-72
2022/05/02 15:03:27;;;;;;;7.85;5.35;;;;;;;21.83;44.49;101819.53;10343653;28;20034;-71
2022/05/02 15:09:16;;;;;;;6.50;4.30;;;;;;;21.40;46.88;101844.06;10345913;28;20031;-72
2022/05/02 15:14:38;;;;;;;6.22;4.30;;;;;;;22.34;44.57;101821.38;10334628;28;20046;-68
2022/05/02 15:19:45;;;;;;;5.25;3.92;;;;;;;22.17;44.35;101823.94;10343723;28;20031;-70
2022/05/02 15:40:56;;;;;;;3.80;2.08;;;;;;;22.33;39.72;101783.25;10339965;28;20041;-71
2022/05/02 15:45:57;;;;;;;4.70;2.30;;;;;;;22.45;39.09;101779.06;10345421;28;20042;-72
2022/05/02 15:51:15;;;;;;;4.13;1.80;;;;;;;22.89;40.15;101788.78;10345828;28;20023;-71
2022/05/02 15:56:18;;;;;;;3.97;2.10;;;;;;;23.16;37.79;101765.44;10342605;28;20034;-71
2022/05/02 16:01:35;;;;;;;2.78;2.30;;;;;;;23.38;38.88;101789.91;10322552;28;20030;-72
2022/05/02 16:06:50;;;;;;;4.57;2.08;;;;;;;23.64;38.90;101781.63;10339949;28;20038;-72
2022/05/02 16:11:50;;;;;;;3.25;2.58;;;;;;;23.32;39.45;101779.94;10338584;28;20165;-70
2022/05/02 16:16:51;;;;;;;5.65;4.05;;;;;;;23.12;39.96;101781.25;10299371;28;20306;-72
2022/05/02 16:21:51;;;;;;;5.68;3.58;;;;;;;22.34;40.82;101773.69;10318447;28;20042;-72
2022/05/02 16:26:56;;;;;;;5.60;3.40;;;;;;;22.36;41.32;101799.44;10310343;28;20055;-72
2022/05/02 16:32:00;;;;;;;5.60;3.53;;;;;;;23.53;41.02;101785.88;10310113;28;20057;-72
2022/05/02 16:37:01;;;;;;;6.32;2.70;;;;;;;23.56;40.50;101786.06;10310852;28;20035;-73
2022/05/02 16:42:01;;;;;;;4.13;2.33;;;;;;;23.06;39.11;101760.88;10310200;28;20430;-73
2022/05/02 16:47:03;;;;;;;2.17;1.80;;;;;;;22.72;39.90;101767.00;10312014;28;20038;-70
2022/05/02 16:52:05;;;;;;;3.15;1.50;;;;;;;22.48;38.56;101753.22;10320522;28;20397;-70
2022/05/02 16:57:05;;;;;;;2.35;1.30;;;;;;;22.49;38.61;101768.88;10309917;28;20113;-73
2022/05/02 17:02:09;;;;;;;2.85;1.23;;;;;;;21.13;38.33;101739.19;10310465;28;20034;-73
2022/05/02 17:07:11;;;;;;;1.67;0.80;;;;;;;19.45;42.64;101768.88;10324406;28;20050;-78
2022/05/02 17:12:14;;;;;;;1.25;0.60;;;;;;;17.99;43.47;101764.66;10323997;28;20034;-71
2022/05/02 17:17:14;;;;;;;0.98;0.57;;;;;;;18.04;40.41;101773.81;10309799;28;20151;-71
2022/05/02 17:22:15;;;;;;;1.95;0.40;;;;;;;17.05;40.64;101785.31;10307501;28;20155;-71
2022/05/02 17:27:21;;;;;;;1.10;0.35;;;;;;;15.83;41.67;101719.78;10322799;28;20031;-71
2022/05/02 17:32:24;;;;;;;1.45;0.40;;;;;;;15.01;44.12;101796.81;10307942;28;20035;-72
2022/05/02 17:37:24;;;;;;;1.35;0.82;;;;;;;14.21;45.76;101801.91;10307120;28;20049;-70
2022/05/02 17:42:25;;;;;;;0.40;0.30;;;;;;;13.78;48.41;101822.03;10308581;28;20039;-72
2022/05/02 17:47:30;;;;;;;0.75;0.30;;;;;;;13.03;49.70;101794.47;10307056;28;20030;-73
2022/05/02 17:52:30;;;;;;;0.85;0.50;;;;;;;13.00;52.07;101839.22;10356971;28;20479;-73
2022/05/02 17:57:31;;;;;;;3.72;0.40;;;;;;;12.78;55.95;101863.09;10360301;28;20033;-73
2022/05/02 18:02:35;;;;;;;2.15;0.40;;;;;;;12.69;56.57;101865.38;10320024;28;20030;-73
2022/05/02 18:07:40;;;;;;;0.57;0.38;;;;;;;12.40;56.72;101856.19;10357300;28;20129;-70
2022/05/02 18:12:41;;;;;;;1.73;0.50;;;;;;;12.31;58.78;101864.84;10346634;28;20076;-71
2022/05/02 18:17:57;;;;;;;0.45;0.40;;;;;;;12.20;61.23;101878.69;10346658;28;20261;-71
2022/05/02 18:23:04;;;;;;;3.28;0.82;;;;;;;11.93;60.79;101862.59;10327379;28;20057;-71
2022/05/02 18:28:08;;;;;;;2.38;0.68;;;;;;;11.85;62.57;101891.34;10345446;28;20054;-71
2022/05/02 18:33:09;;;;;;;1.48;0.82;;;;;;;11.63;65.17;101896.56;10345218;28;20038;-70
2022/05/02 18:38:13;;;;;;;1.35;0.70;;;;;;;11.47;68.18;101905.50;10329370;28;20061;-70
2022/05/02 18:43:14;;;;;;;2.45;0.80;;;;;;;11.21;71.10;101907.59;10345499;28;20080;-72
2022/05/02 18:53:33;;;;;;;2.33;1.10;;;;;;;10.79;76.42;101884.63;10343666;28;20036;-71
2022/05/02 18:58:35;;;;;;;2.80;1.08;;;;;;;10.66;79.87;101911.25;10345323;28;20071;-71
2022/05/02 19:03:38;;;;;;;2.33;1.00;;;;;;;10.48;84.06;101911.28;10323036;28;20023;-71
2022/05/02 19:08:39;;;;;;;1.55;1.00;;;;;;;10.30;86.28;101921.16;10306460;28;20058;-70
2022/05/02 19:13:43;;;;;;;1.83;1.23;;;;;;;10.21;89.05;101933.53;10303856;28;20038;-70
2022/05/02 19:18:44;;;;;;;1.77;1.23;;;;;;;9.98;92.43;101916.78;10320477;28;20048;-70
2022/05/02 19:23:50;;;;;;;1.92;1.30;;;;;;;9.87;95.65;101935.69;10320088;28;20446;-70
2022/05/02 19:28:52;;;;;;;3.38;1.15;;;;;;;9.61;98.16;101927.63;10305653;28;20106;-70
2022/05/02 19:39:19;;;;;;;2.23;1.00;;;;;;;9.37;100.00;101938.38;10304128;28;20034;-70
2022/05/02 19:44:21;;;;;;;2.90;1.10;;;;;;;9.31;100.00;101944.75;10319707;28;20042;-71
2022/05/02 19:49:21;;;;;;;1.20;0.85;;;;;;;9.18;100.00;101936.59;10305935;28;20050;-71
2022/05/02 19:54:22;;;;;;;3.38;0.90;;;;;;;9.08;100.00;101928.81;10323568;28;20023;-71
2022/05/02 19:59:22;;;;;;;1.45;0.95;;;;;;;8.91;100.00;101925.72;10311689;28;20030;-71
2022/05/02 20:04:23;;;;;;;2.78;0.98;;;;;;;8.75;100.00;101920.72;10327520;28;20031;-71
2022/05/02 20:09:23;;;;;;;1.85;0.93;;;;;;;8.70;100.00;101940.53;10345553;28;20061;-72
2022/05/02 20:14:24;;;;;;;4.10;1.50;;;;;;;8.67;100.00;101939.09;10337582;28;20027;-72
2022/05/02 20:19:26;;;;;;;1.73;1.20;;;;;;;8.62;100.00;101943.53;10318712;28;20030;-72
2022/05/02 20:24:27;;;;;;;2.00;1.13;;;;;;;8.56;100.00;101949.88;10355679;28;20058;-71
2022/05/02 20:29:29;;;;;;;4.00;1.58;;;;;;;8.43;100.00;101948.00;10309243;28;20097;-72
2022/05/02 20:39:49;;;;;;;2.58;1.60;;;;;;;8.26;100.00;101948.41;10314277;28;20078;-72
2022/05/02 20:44:59;;;;;;;4.82;1.90;;;;;;;8.13;100.00;101948.44;10309844;28;20039;-72
2022/05/02 20:50:00;;;;;;;3.65;2.03;;;;;;;7.95;100.00;101929.03;10308638;28;20054;-71
2022/05/02 20:55:00;;;;;;;4.80;2.20;;;;;;;7.63;100.00;101893.19;10325312;28;20042;-71
2022/05/02 21:00:01;;;;;;;2.53;1.88;;;;;;;7.78;100.00;101937.69;10311880;28;20031;-70
2022/05/02 21:05:02;;;;;;;2.70;2.28;;;;;;;7.59;100.00;101919.31;10323086;28;20511;-71
2022/05/02 21:10:12;;;;;;;3.50;2.55;;;;;;;7.56;100.00;101928.78;10309175;28;20035;-71
2022/05/02 21:15:36;;;;;;;3.17;1.77;;;;;;;7.71;100.00;101944.19;10322916;28;20094;-72
2022/05/02 21:20:56;;;;;;;8.45;2.30;;;;;;;7.55;100.00;101931.75;10308532;28;20035;-72
2022/05/02 21:26:02;;;;;;;5.10;2.03;;;;;;;7.55;100.00;101946.28;10322135;28;20045;-72
2022/05/02 21:31:32;;;;;;;3.47;2.00;;;;;;;7.46;100.00;101931.94;10322380;28;20034;-72
2022/05/02 21:36:33;;;;;;;5.10;2.70;;;;;;;7.33;100.00;101942.03;10314428;28;20054;-71
2022/05/02 21:41:34;;;;;;;5.18;2.47;;;;;;;7.21;100.00;101939.03;10306818;28;20034;-71
2022/05/02 21:46:38;;;;;;;6.95;2.97;;;;;;;7.06;100.00;101930.97;10322690;28;20026;-72
2022/05/02 21:51:38;;;;;;;3.55;2.35;;;;;;;6.97;100.00;101933.06;10314105;28;20414;-73
2022/05/02 21:56:40;;;;;;;4.38;2.90;;;;;;;6.83;100.00;101934.06;10309968;28;20034;-72
2022/05/02 22:01:40;;;;;;;4.85;2.63;;;;;;;6.74;100.00;101933.38;10307169;28;20039;-71
2022/05/02 22:06:41;;;;;;;5.32;2.35;;;;;;;6.65;100.00;101940.06;10307001;28;20035;-72
2022/05/02 22:11:42;;;;;;;6.38;2.60;;;;;;;6.58;100.00;101944.66;10322715;28;20565;-71
2022/05/02 22:16:42;;;;;;;5.10;3.20;;;;;;;6.43;100.00;101928.38;10309364;28;20050;-72
2022/05/02 22:21:43;;;;;;;4.18;3.55;;;;;;;6.48;100.00;101931.34;10348513;28;20069;-72
2022/05/02 22:26:44;;;;;;;4.85;2.97;;;;;;;6.29;100.00;101908.28;10348226;28;20479;-72
2022/05/02 22:31:44;;;;;;;4.82;3.08;;;;;;;6.32;100.00;101923.44;10346817;28;20042;-72
2022/05/02 22:36:45;;;;;;;5.90;3.25;;;;;;;6.26;100.00;101930.56;10346718;28;20129;-72
2022/05/02 22:41:45;;;;;;;5.75;3.22;;;;;;;6.20;100.00;101932.22;10348151;28;20105;-72
2022/05/02 22:46:46;;;;;;;6.43;3.40;;;;;;;6.11;100.00;101933.41;10336354;28;20527;-72
2022/05/02 22:51:47;;;;;;;5.57;3.33;;;;;;;5.90;100.00;101904.19;10307226;28;20106;-72
2022/05/02 22:56:50;;;;;;;5.32;3.83;;;;;;;5.81;100.00;101905.38;10307063;28;20090;-72
2022/05/02 23:01:58;;;;;;;9.75;3.72;;;;;;;5.87;100.00;101921.00;10321430;28;20031;-72
2022/05/02 23:07:08;;;;;;;6.18;3.67;;;;;;;5.77;100.00;101926.78;10306006;28;20031;-72
2022/05/02 23:12:09;;;;;;;7.20;4.32;;;;;;;5.62;100.00;101912.34;10341973;28;20059;-71
2022/05/02 23:17:09;;;;;;;6.25;3.90;;;;;;;5.69;100.00;101920.63;10340479;28;20090;-72
2022/05/02 23:22:14;;;;;;;5.38;3.50;;;;;;;5.62;100.00;101917.81;10305046;28;20109;-72
2022/05/02 23:27:14;;;;;;;7.07;4.38;;;;;;;5.49;100.00;101906.78;10320740;28;20078;-73
2022/05/02 23:32:33;;;;;;;6.43;4.28;;;;;;;5.53;100.00;101925.28;10319425;28;20558;-72
2022/05/02 23:38:00;;;;;;;5.75;4.22;;;;;;;5.42;100.00;101907.53;10320101;28;20046;-71
2022/05/02 23:43:04;;;;;;;7.35;3.90;;;;;;;5.23;100.00;101892.66;10319911;28;20030;-72
2022/05/02 23:48:27;;;;;;;8.55;5.05;;;;;;;5.25;100.00;101906.97;10332809;28;20046;-72
2022/05/02 23:53:51;;;;;;;8.80;5.70;;;;;;;5.19;100.00;101898.72;10340638;28;20050;-72
2022/05/02 23:59:06;;;;;;;9.60;5.82;;;;;;;5.15;100.00;101905.59;10358757;28;20034;-72
